Time;durP1;ratioP1;P1;durP2;ratioP2;P2;SDS_P1;SDS_P2;PMS_P1;PMS_P2;Temp;Humidity;BMP_temperature;BMP_pressure;BME280_temperature;BME280_humidity;BME280_pressure;Samples;Min_cycle;Max_cycle;Signal;HPM_P1;HPM_P2
2022/09/03 00:01:13;;;;;;;4.63;3.57;;;16.30;87.50;;;;;;5032847;28;20434;-63
2022/09/03 00:03:45;;;;;;;5.13;2.90;;;16.20;88.00;;;;;;5033985;28;20525;-65
2022/09/03 00:06:16;;;;;;;5.60;3.40;;;16.20;88.60;;;;;;5032410;28;20959;-64
2022/09/03 00:08:48;;;;;;;4.60;3.53;;;16.20;88.50;;;;;;5033798;28;20532;-65
2022/09/03 00:11:20;;;;;;;6.17;4.10;;;16.30;88.90;;;;;;5032387;28;20434;-64
2022/09/03 00:13:52;;;;;;;5.57;3.80;;;16.30;88.80;;;;;;5033954;28;20438;-65
2022/09/03 00:16:23;;;;;;;5.40;3.43;;;16.30;89.30;;;;;;5032587;28;20479;-64
2022/09/03 00:18:57;;;;;;;3.70;3.20;;;16.30;89.30;;;;;;5033059;28;20956;-64
2022/09/03 00:21:37;;;;;;;4.10;3.57;;;16.30;88.60;;;;;;5032417;28;20470;-64
2022/09/03 00:24:07;;;;;;;5.00;3.80;;;16.30;88.60;;;;;;5033576;28;20485;-64
2022/09/03 00:26:37;;;;;;;6.07;4.10;;;16.30;88.70;;;;;;5031893;28;20470;-64
2022/09/03 00:29:11;;;;;;;4.27;3.70;;;16.30;88.60;;;;;;5033526;28;20840;-64
2022/09/03 00:31:42;;;;;;;6.63;3.13;;;16.20;88.80;;;;;;5031997;28;20474;-64
2022/09/03 00:34:17;;;;;;;5.80;4.37;;;16.20;88.90;;;;;;5032329;28;20512;-64
2022/09/03 00:36:45;;;;;;;4.43;3.53;;;16.20;88.90;;;;;;5033407;28;20441;-64
2022/09/03 00:39:14;;;;;;;4.33;3.23;;;16.20;89.30;;;;;;5032041;28;20518;-64
2022/09/03 00:41:56;;;;;;;4.33;3.60;;;16.20;90.10;;;;;;5032136;28;20473;-65
2022/09/03 00:44:47;;;;;;;5.37;3.33;;;16.20;89.50;;;;;;5033290;28;20795;-64
2022/09/03 00:47:19;;;;;;;4.83;3.00;;;16.10;89.70;;;;;;5031937;28;20482;-64
2022/09/03 00:49:59;;;;;;;4.93;3.60;;;16.10;90.00;;;;;;5032707;28;20500;-65
2022/09/03 00:52:42;;;;;;;3.73;3.03;;;16.10;90.10;;;;;;5031059;28;20783;-64
2022/09/03 00:55:19;;;;;;;4.87;2.97;;;16.00;90.10;;;;;;5033193;28;20445;-64
2022/09/03 00:57:57;;;;;;;4.03;2.97;;;16.00;90.20;;;;;;5031285;28;20524;-64
2022/09/03 01:00:24;;;;;;;5.10;3.27;;;16.00;90.10;;;;;;5032804;28;20517;-69
2022/09/03 01:03:04;;;;;;;6.80;4.40;;;16.10;90.10;;;;;;5031539;28;20442;-64
2022/09/03 01:05:42;;;;;;;4.67;4.03;;;16.10;90.00;;;;;;5032969;28;20488;-64
2022/09/03 01:08:20;;;;;;;7.17;3.60;;;16.10;90.00;;;;;;5031853;28;20525;-65
2022/09/03 01:10:56;;;;;;;5.87;3.20;;;16.10;90.40;;;;;;5032671;28;20536;-64
2022/09/03 01:13:30;;;;;;;5.47;4.47;;;16.00;90.50;;;;;;5030791;28;20446;-64
2022/09/03 01:16:07;;;;;;;4.47;3.63;;;16.10;90.50;;;;;;5032548;28;20472;-64
2022/09/03 01:18:42;;;;;;;5.70;3.60;;;16.10;90.40;;;;;;5031438;28;20869;-63
2022/09/03 01:21:37;;;;;;;4.03;3.20;;;16.00;90.50;;;;;;5030585;28;20505;-64
2022/09/03 01:24:30;;;;;;;6.90;3.40;;;16.10;90.60;;;;;;5032650;28;20515;-64
2022/09/03 01:27:09;;;;;;;5.30;3.90;;;16.00;90.50;;;;;;5031244;28;20496;-64
2022/09/03 01:29:47;;;;;;;4.93;4.00;;;16.10;90.60;;;;;;5031727;28;20524;-66
2022/09/03 01:32:23;;;;;;;4.60;3.80;;;16.10;90.80;;;;;;5031348;28;20445;-64
2022/09/03 01:35:15;;;;;;;4.07;3.50;;;16.10;90.70;;;;;;5031394;28;20438;-64
2022/09/03 01:37:56;;;;;;;4.23;3.47;;;16.10;90.60;;;;;;5032372;28;20457;-65
2022/09/03 01:40:30;;;;;;;5.00;3.60;;;16.10;90.70;;;;;;5031229;28;20496;-64
2022/09/03 01:43:09;;;;;;;9.00;3.57;;;16.10;90.60;;;;;;5032334;28;20430;-64
2022/09/03 01:45:50;;;;;;;5.50;3.40;;;16.10;90.60;;;;;;5030577;28;20533;-64
2022/09/03 01:48:42;;;;;;;6.57;3.80;;;16.10;90.50;;;;;;5032171;28;20469;-64
2022/09/03 01:51:19;;;;;;;4.40;3.43;;;16.10;90.60;;;;;;5032407;28;20440;-64
2022/09/03 01:54:11;;;;;;;5.70;3.57;;;16.00;90.70;;;;;;5031020;28;20818;-64
2022/09/03 01:56:55;;;;;;;5.37;3.87;;;16.00;90.50;;;;;;5029897;28;20454;-64
2022/09/03 01:59:27;;;;;;;3.60;3.20;;;15.80;90.20;;;;;;5030920;28;20446;-64
2022/09/03 02:02:02;;;;;;;4.23;3.80;;;15.70;90.10;;;;;;5032083;28;20438;-66
2022/09/03 02:04:30;;;;;;;7.20;4.43;;;15.60;90.20;;;;;;5030642;28;20475;-64
2022/09/03 02:07:00;;;;;;;3.83;3.40;;;15.50;90.50;;;;;;5031341;28;20525;-69
2022/09/03 02:09:28;;;;;;;4.03;3.60;;;15.40;90.70;;;;;;5031559;28;20465;-65
2022/09/03 02:11:59;;;;;;;4.70;3.60;;;15.40;90.80;;;;;;5035554;28;20503;-64
2022/09/03 02:14:27;;;;;;;5.00;4.17;;;15.30;90.80;;;;;;5015844;28;20445;-64
2022/09/03 02:17:00;;;;;;;5.30;3.50;;;15.30;90.80;;;;;;5015365;28;20442;-64
2022/09/03 02:19:30;;;;;;;6.90;3.73;;;15.20;90.90;;;;;;5035108;28;20441;-64
2022/09/03 02:21:58;;;;;;;3.60;3.20;;;15.20;91.00;;;;;;5035340;28;20433;-64
2022/09/03 02:24:28;;;;;;;5.10;3.67;;;15.20;91.30;;;;;;5034912;28;20438;-64
2022/09/03 02:26:55;;;;;;;4.80;3.60;;;15.20;91.50;;;;;;5035412;28;20438;-64
2022/09/03 02:29:24;;;;;;;5.37;3.80;;;15.20;91.60;;;;;;5034503;28;20504;-64
2022/09/03 02:31:51;;;;;;;6.20;4.00;;;15.20;91.90;;;;;;5034867;28;20449;-64
2022/09/03 02:34:19;;;;;;;5.20;4.33;;;15.20;92.00;;;;;;5034820;28;20940;-64
2022/09/03 02:36:47;;;;;;;3.90;3.50;;;15.20;92.00;;;;;;5035232;28;20853;-64
2022/09/03 02:39:16;;;;;;;6.50;3.53;;;15.00;91.70;;;;;;5032457;28;20434;-64
2022/09/03 02:41:43;;;;;;;6.80;4.10;;;14.90;92.00;;;;;;5035118;28;20486;-65
2022/09/03 02:44:16;;;;;;;6.27;3.43;;;14.90;92.00;;;;;;5034817;28;20513;-64
2022/09/03 02:46:46;;;;;;;5.80;4.03;;;14.90;92.20;;;;;;5034662;28;20480;-64
2022/09/03 02:49:14;;;;;;;6.47;3.97;;;14.90;92.40;;;;;;5034054;28;20441;-64
2022/09/03 02:51:44;;;;;;;4.30;3.87;;;14.90;92.40;;;;;;5034805;28;20437;-64
2022/09/03 02:54:12;;;;;;;4.50;4.10;;;14.80;92.20;;;;;;5034353;28;20446;-64
2022/09/03 02:56:40;;;;;;;4.97;4.13;;;14.70;92.10;;;;;;5034544;28;20448;-64
2022/09/03 02:59:09;;;;;;;5.00;3.90;;;14.70;92.30;;;;;;5034128;28;20438;-64
2022/09/03 03:01:36;;;;;;;4.80;3.83;;;14.60;92.30;;;;;;5034577;28;20489;-64
2022/09/03 03:04:04;;;;;;;6.27;3.70;;;;;;;;;;5033594;28;20500;-64
2022/09/03 03:06:32;;;;;;;6.57;5.00;;;;;;;;;;5034437;28;20925;-64
2022/09/03 03:09:03;;;;;;;5.67;3.87;;;;;;;;;;5033598;28;20446;-64
2022/09/03 03:11:30;;;;;;;4.30;3.63;;;14.60;92.50;;;;;;5034154;28;20790;-64
2022/09/03 03:13:57;;;;;;;5.17;4.10;;;14.40;93.40;;;;;;5033856;28;20456;-64
2022/09/03 03:16:25;;;;;;;4.00;3.60;;;14.40;93.40;;;;;;5034413;28;20442;-64
2022/09/03 03:18:52;;;;;;;4.57;4.03;;;14.30;93.40;;;;;;5033495;28;20849;-65
2022/09/03 03:21:19;;;;;;;6.33;4.60;;;14.30;93.60;;;;;;5033473;28;20481;-64
2022/09/03 03:23:46;;;;;;;5.60;4.17;;;14.30;93.80;;;;;;5033758;28;20504;-65
2022/09/03 03:26:18;;;;;;;5.70;4.20;;;14.30;93.80;;;;;;5034490;28;20446;-65
2022/09/03 03:28:47;;;;;;;5.07;4.23;;;14.30;93.80;;;;;;5033840;28;20438;-65
2022/09/03 03:31:17;;;;;;;4.93;4.00;;;14.30;93.80;;;;;;5034136;28;20438;-65
2022/09/03 03:33:44;;;;;;;4.63;4.10;;;14.30;93.90;;;;;;5033733;28;20434;-65
2022/09/03 03:36:13;;;;;;;4.60;3.87;;;14.20;94.00;;;;;;5034047;28;20442;-64
2022/09/03 03:38:41;;;;;;;5.13;4.10;;;14.20;94.10;;;;;;5033532;28;20438;-64
2022/09/03 03:41:09;;;;;;;4.63;4.23;;;14.10;94.30;;;;;;5033475;28;20477;-64
2022/09/03 03:43:38;;;;;;;5.03;4.53;;;14.10;94.40;;;;;;5033412;28;20446;-64
2022/09/03 03:46:05;;;;;;;8.70;6.23;;;14.10;94.50;;;;;;5033574;28;20472;-64
2022/09/03 03:48:33;;;;;;;6.00;5.20;;;14.20;94.60;;;;;;5033225;28;20442;-65
2022/09/03 03:51:03;;;;;;;4.77;4.27;;;14.20;94.70;;;;;;5033538;28;20442;-64
2022/09/03 03:53:30;;;;;;;6.40;4.87;;;14.20;94.70;;;;;;5033193;28;20496;-64
2022/09/03 03:55:58;;;;;;;5.57;4.43;;;14.30;94.90;;;;;;5033693;28;20438;-64
2022/09/03 03:58:25;;;;;;;5.77;5.27;;;14.30;94.80;;;;;;5032996;28;20438;-64
2022/09/03 04:00:54;;;;;;;4.90;4.40;;;14.40;94.80;;;;;;5033718;28;20893;-64
2022/09/03 04:03:21;;;;;;;5.13;4.30;;;14.40;94.70;;;;;;5032762;28;20940;-64
2022/09/03 04:05:56;;;;;;;5.20;4.70;;;14.30;94.70;;;;;;5033475;28;20457;-64
2022/09/03 04:08:23;;;;;;;5.97;4.13;;;14.40;94.90;;;;;;5031699;28;20524;-65
2022/09/03 04:10:50;;;;;;;5.00;4.17;;;14.40;94.90;;;;;;5033147;28;20433;-64
2022/09/03 04:13:18;;;;;;;5.03;4.60;;;14.50;94.90;;;;;;5032604;28;20449;-64
2022/09/03 04:15:45;;;;;;;6.30;4.00;;;14.50;94.90;;;;;;5033003;28;20454;-65
2022/09/03 04:18:14;;;;;;;4.17;3.77;;;14.60;95.00;;;;;;5032347;28;20445;-65
2022/09/03 04:20:41;;;;;;;4.70;4.00;;;14.60;94.90;;;;;;5033031;28;20481;-64
2022/09/03 04:23:08;;;;;;;4.67;3.83;;;14.70;95.00;;;;;;5033167;28;20812;-64
2022/09/03 04:25:35;;;;;;;7.20;3.73;;;14.70;94.70;;;;;;5032751;28;20442;-65
2022/09/03 04:28:03;;;;;;;5.93;4.00;;;14.80;94.60;;;;;;5032857;28;20892;-65
2022/09/03 04:30:30;;;;;;;4.17;3.77;;;14.70;94.60;;;;;;5032474;28;20446;-64
2022/09/03 04:32:58;;;;;;;4.17;3.60;;;14.70;94.70;;;;;;5032758;28;20488;-64
2022/09/03 04:35:28;;;;;;;6.17;3.70;;;14.80;94.70;;;;;;5032625;28;20469;-64
2022/09/03 04:37:56;;;;;;;5.13;3.47;;;14.80;94.60;;;;;;5033209;28;20503;-64
2022/09/03 04:40:23;;;;;;;4.43;2.97;;;14.80;94.60;;;;;;5032459;28;20438;-64
2022/09/03 04:42:51;;;;;;;5.80;3.30;;;14.80;94.70;;;;;;5033052;28;20449;-66
2022/09/03 04:45:18;;;;;;;3.80;3.40;;;14.80;94.50;;;;;;5032229;28;20438;-65
2022/09/03 04:47:55;;;;;;;5.37;3.50;;;14.80;94.70;;;;;;5032627;28;20481;-65
2022/09/03 04:50:22;;;;;;;5.20;4.50;;;14.80;94.70;;;;;;5031929;28;20469;-64
2022/09/03 04:52:51;;;;;;;4.03;3.63;;;14.80;94.90;;;;;;5029481;28;20442;-65
2022/09/03 04:55:18;;;;;;;4.77;3.77;;;14.70;94.90;;;;;;5030324;28;20525;-65
2022/09/03 04:57:45;;;;;;;4.20;3.73;;;14.80;95.00;;;;;;5030515;28;20533;-65
2022/09/03 05:00:13;;;;;;;6.40;3.70;;;14.80;95.10;;;;;;5030143;28;20477;-64
2022/09/03 05:02:40;;;;;;;5.50;4.20;;;14.90;95.00;;;;;;5030900;28;20493;-64
2022/09/03 05:05:07;;;;;;;4.53;3.43;;;14.90;95.20;;;;;;5030391;28;20499;-64
2022/09/03 05:07:37;;;;;;;5.63;3.80;;;14.90;95.40;;;;;;5030413;28;20449;-64
2022/09/03 05:10:11;;;;;;;4.00;3.43;;;14.90;95.20;;;;;;5029385;28;20437;-64
2022/09/03 05:12:38;;;;;;;6.60;4.77;;;15.00;95.30;;;;;;5030742;28;20808;-64
2022/09/03 05:15:07;;;;;;;5.60;4.30;;;15.00;95.20;;;;;;5029093;28;20473;-67
2022/09/03 05:17:37;;;;;;;4.63;3.77;;;15.00;95.60;;;;;;5029967;28;20995;-64
2022/09/03 05:20:04;;;;;;;7.00;4.23;;;15.00;95.70;;;;;;5030046;28;20568;-64
2022/09/03 05:22:32;;;;;;;4.63;3.60;;;15.10;96.20;;;;;;5029609;28;20473;-64
2022/09/03 05:24:59;;;;;;;6.80;4.40;;;15.20;96.40;;;;;;5030543;28;20449;-64
2022/09/03 05:27:27;;;;;;;5.90;5.40;;;15.30;96.10;;;;;;5029406;28;20442;-65
2022/09/03 05:29:55;;;;;;;6.40;3.80;;;15.30;96.00;;;;;;5029131;28;20978;-64
2022/09/03 05:32:22;;;;;;;4.57;4.10;;;15.40;96.20;;;;;;5029737;28;20449;-65
2022/09/03 05:34:49;;;;;;;5.40;4.30;;;15.50;95.60;;;;;;5030354;28;20832;-64
2022/09/03 05:37:16;;;;;;;4.63;4.23;;;15.60;95.50;;;;;;5030705;28;20445;-64
2022/09/03 05:39:43;;;;;;;6.40;5.47;;;15.50;95.80;;;;;;5029726;28;20445;-66
2022/09/03 05:42:11;;;;;;;6.50;5.07;;;15.60;95.80;;;;;;5029513;28;20500;-65
2022/09/03 05:44:39;;;;;;;9.60;4.50;;;15.60;95.70;;;;;;5029081;28;20446;-64
2022/09/03 05:47:07;;;;;;;4.83;4.07;;;15.70;95.80;;;;;;5031815;28;20465;-65
2022/09/03 05:49:34;;;;;;;4.30;3.90;;;15.90;95.90;;;;;;5034076;28;20537;-67
2022/09/03 05:52:01;;;;;;;7.13;5.27;;;16.00;95.70;;;;;;5030391;28;20555;-64
2022/09/03 05:54:29;;;;;;;11.30;5.80;;;16.10;95.60;;;;;;5033927;28;20445;-65
2022/09/03 05:56:56;;;;;;;6.03;5.13;;;16.20;95.70;;;;;;5034296;28;20458;-64
2022/09/03 05:59:23;;;;;;;6.17;4.90;;;16.30;95.80;;;;;;5032945;28;20441;-65
2022/09/03 06:01:52;;;;;;;7.30;5.40;;;16.50;95.70;;;;;;5034043;28;20980;-65
2022/09/03 06:04:24;;;;;;;6.73;5.63;;;16.60;95.30;;;;;;5034005;28;20430;-65
2022/09/03 06:06:51;;;;;;;7.70;5.00;;;16.60;95.20;;;;;;5033770;28;20438;-66
2022/09/03 06:09:20;;;;;;;6.70;4.97;;;16.70;95.20;;;;;;5033607;28;20445;-65
2022/09/03 06:11:48;;;;;;;4.97;4.37;;;16.70;95.10;;;;;;5034083;28;20532;-64
2022/09/03 06:14:16;;;;;;;6.03;4.80;;;16.80;94.70;;;;;;5033247;28;20442;-67
2022/09/03 06:16:45;;;;;;;5.77;4.70;;;16.80;94.70;;;;;;5033097;28;20442;-65
2022/09/03 06:19:13;;;;;;;6.80;4.00;;;16.80;94.80;;;;;;5033888;28;20446;-64
2022/09/03 06:21:42;;;;;;;5.20;4.40;;;16.70;94.70;;;;;;5033172;28;20504;-65
2022/09/03 06:24:11;;;;;;;4.87;4.47;;;16.80;94.80;;;;;;5034281;28;20448;-64
2022/09/03 06:26:38;;;;;;;8.03;4.80;;;16.80;95.00;;;;;;5029338;28;20740;-64
2022/09/03 06:29:05;;;;;;;6.93;4.23;;;16.90;95.20;;;;;;5034333;28;20456;-65
2022/09/03 06:31:32;;;;;;;7.90;4.47;;;16.90;95.50;;;;;;5034191;28;20492;-64
2022/09/03 06:33:59;;;;;;;5.67;5.10;;;16.90;95.40;;;;;;5033458;28;20916;-65
2022/09/03 06:36:27;;;;;;;4.20;3.80;;;17.00;95.40;;;;;;5034075;28;20442;-65
2022/09/03 06:38:56;;;;;;;6.70;4.97;;;17.00;95.50;;;;;;5033446;28;20971;-65
2022/09/03 06:41:26;;;;;;;5.63;3.73;;;17.10;95.70;;;;;;5033898;28;20543;-65
2022/09/03 06:43:54;;;;;;;7.53;5.00;;;17.30;96.00;;;;;;5029501;28;20446;-64
2022/09/03 06:46:22;;;;;;;6.00;4.80;;;17.50;95.90;;;;;;5033523;28;20512;-64
2022/09/03 06:48:51;;;;;;;4.80;4.30;;;17.70;95.80;;;;;;5033602;28;20473;-66
2022/09/03 06:51:19;;;;;;;8.13;4.60;;;17.90;95.60;;;;;;5033078;28;20823;-66
2022/09/03 06:53:48;;;;;;;4.93;4.43;;;18.10;95.50;;;;;;5030003;28;20544;-65
2022/09/03 06:56:17;;;;;;;5.10;4.47;;;18.20;94.80;;;;;;5032710;28;20442;-65
2022/09/03 06:58:46;;;;;;;6.23;4.40;;;18.30;94.40;;;;;;5033291;28;20452;-66
2022/09/03 07:01:16;;;;;;;4.80;4.10;;;18.50;94.10;;;;;;5029288;28;20441;-65
2022/09/03 07:03:45;;;;;;;4.43;4.03;;;18.70;94.00;;;;;;5033485;28;20944;-65
2022/09/03 07:06:13;;;;;;;5.07;4.57;;;18.80;93.50;;;;;;5029407;28;20933;-64
2022/09/03 07:08:41;;;;;;;4.60;3.93;;;18.80;93.30;;;;;;5032997;28;20446;-64
2022/09/03 07:11:11;;;;;;;6.87;5.80;;;18.90;93.40;;;;;;5033763;28;20848;-64
2022/09/03 07:13:40;;;;;;;5.43;4.23;;;18.90;93.30;;;;;;5032933;28;20981;-64
2022/09/03 07:16:09;;;;;;;4.77;4.27;;;19.00;93.00;;;;;;5032006;28;20438;-65
2022/09/03 07:18:36;;;;;;;7.30;6.50;;;18.90;93.20;;;;;;5031365;28;20537;-64
2022/09/03 07:21:05;;;;;;;6.10;4.50;;;18.90;93.00;;;;;;5033472;28;20471;-63
2022/09/03 07:23:33;;;;;;;4.50;3.83;;;18.90;92.70;;;;;;5031733;28;20854;-64
2022/09/03 07:26:01;;;;;;;6.73;4.57;;;18.90;92.50;;;;;;5032992;28;20788;-64
2022/09/03 07:28:32;;;;;;;8.47;4.37;;;18.90;93.00;;;;;;5032326;28;20478;-64
2022/09/03 07:31:03;;;;;;;6.47;4.23;;;18.80;93.20;;;;;;5033105;28;20438;-64
2022/09/03 07:33:31;;;;;;;5.13;4.63;;;18.80;93.50;;;;;;5032512;28;20539;-64
2022/09/03 07:36:03;;;;;;;4.53;4.10;;;18.80;93.80;;;;;;5032902;28;20807;-64
2022/09/03 07:38:30;;;;;;;5.53;4.47;;;18.80;94.30;;;;;;5032465;28;20818;-63
2022/09/03 07:41:00;;;;;;;6.10;4.60;;;18.80;94.30;;;;;;5032386;28;20965;-64
2022/09/03 07:43:30;;;;;;;9.17;4.10;;;18.80;94.20;;;;;;5032021;28;20547;-64
2022/09/03 07:45:57;;;;;;;13.43;5.97;;;18.80;94.20;;;;;;5033035;28;20441;-64
2022/09/03 07:48:24;;;;;;;8.00;6.70;;;18.80;94.50;;;;;;5031549;28;20880;-65
2022/09/03 07:50:52;;;;;;;7.27;5.37;;;18.80;94.90;;;;;;5032633;28;20474;-63
2022/09/03 07:53:20;;;;;;;6.30;4.33;;;18.90;95.30;;;;;;5021529;28;20485;-65
2022/09/03 07:55:49;;;;;;;4.97;3.90;;;19.00;95.20;;;;;;5029816;28;20498;-64
2022/09/03 07:58:17;;;;;;;6.20;4.37;;;19.00;94.50;;;;;;5030458;28;20447;-64
2022/09/03 08:00:45;;;;;;;5.00;4.40;;;19.00;94.40;;;;;;5031426;28;20861;-64
2022/09/03 08:03:12;;;;;;;5.00;4.17;;;19.10;94.70;;;;;;5030604;28;20486;-64
2022/09/03 08:05:39;;;;;;;4.27;3.80;;;19.20;94.20;;;;;;5030978;28;20472;-64
2022/09/03 08:08:07;;;;;;;6.33;4.10;;;19.30;94.20;;;;;;5031839;28;20466;-65
2022/09/03 08:10:37;;;;;;;4.47;3.80;;;19.50;94.60;;;;;;5032496;28;20527;-64
2022/09/03 08:13:04;;;;;;;5.87;5.17;;;19.90;94.40;;;;;;5032604;28;20438;-64
2022/09/03 08:15:31;;;;;;;6.00;4.70;;;20.30;94.40;;;;;;5030913;28;20902;-64
2022/09/03 08:17:59;;;;;;;4.50;3.63;;;21.60;95.80;;;;;;5032123;28;20439;-64
2022/09/03 08:20:27;;;;;;;5.50;3.50;;;22.70;91.40;;;;;;5030632;28;20440;-64
2022/09/03 08:23:01;;;;;;;8.10;5.17;;;22.90;83.70;;;;;;5032146;28;20481;-64
2022/09/03 08:25:29;;;;;;;9.63;6.77;;;23.10;86.30;;;;;;5031536;28;20938;-65
2022/09/03 08:27:59;;;;;;;7.87;5.60;;;23.50;87.50;;;;;;5031869;28;20445;-66
2022/09/03 08:30:26;;;;;;;3.83;3.07;;;25.50;86.20;;;;;;5031256;28;20441;-64
2022/09/03 08:32:54;;;;;;;10.20;3.07;;;27.20;72.90;;;;;;5031391;28;20438;-65
2022/09/03 08:35:22;;;;;;;4.10;3.27;;;29.60;65.50;;;;;;5031408;28;20452;-64
2022/09/03 08:37:52;;;;;;;2.60;2.03;;;32.20;58.50;;;;;;5026956;28;20465;-65
2022/09/03 08:40:23;;;;;;;4.97;2.67;;;34.70;46.80;;;;;;5028241;28;20458;-67
2022/09/03 08:43:05;;;;;;;3.00;2.03;;;36.30;41.80;;;;;;5029781;28;20481;-69
2022/09/03 08:45:34;;;;;;;3.00;1.97;;;37.80;37.00;;;;;;5028618;28;20527;-67
2022/09/03 08:48:08;;;;;;;3.13;2.20;;;39.00;33.20;;;;;;5031394;28;20464;-64
2022/09/03 08:50:40;;;;;;;2.50;1.90;;;39.90;31.50;;;;;;5016293;28;20450;-64
2022/09/03 08:53:12;;;;;;;3.73;2.23;;;40.70;29.20;;;;;;5012130;28;20466;-65
2022/09/03 08:55:47;;;;;;;2.60;1.40;;;41.60;27.10;;;;;;5006686;28;20561;-69
2022/09/03 08:58:17;;;;;;;3.27;2.20;;;42.00;25.70;;;;;;5027175;28;20466;-65
2022/09/03 09:00:50;;;;;;;3.07;2.07;;;41.90;25.80;;;;;;5028608;28;20453;-65
2022/09/03 09:03:42;;;;;;;2.57;1.80;;;40.40;24.80;;;;;;5031425;28;20513;-64
2022/09/03 09:06:20;;;;;;;3.93;2.07;;;38.40;26.00;;;;;;5029331;28;20466;-64
2022/09/03 09:09:05;;;;;;;2.43;1.83;;;36.60;27.40;;;;;;5027361;28;20473;-65
2022/09/03 09:11:48;;;;;;;3.47;2.00;;;35.50;29.50;;;;;;5030247;28;20446;-64
2022/09/03 09:14:21;;;;;;;2.60;1.80;;;34.60;31.10;;;;;;5031357;28;20469;-64
2022/09/03 09:16:59;;;;;;;2.67;2.20;;;34.20;33.50;;;;;;5031142;28;20446;-64
2022/09/03 09:19:39;;;;;;;3.03;2.13;;;35.00;34.80;;;;;;5029029;28;20442;-64
2022/09/03 09:22:10;;;;;;;4.33;1.97;;;35.90;32.30;;;;;;5025613;28;20991;-64
2022/09/03 09:24:40;;;;;;;3.30;2.20;;;35.70;32.30;;;;;;5028428;28;20531;-64
2022/09/03 09:27:08;;;;;;;2.53;2.00;;;35.80;31.80;;;;;;5027478;28;20506;-64
2022/09/03 09:29:37;;;;;;;3.03;1.83;;;35.60;30.90;;;;;;5025059;28;20503;-64
2022/09/03 09:32:07;;;;;;;2.97;2.10;;;35.10;30.60;;;;;;5030044;28;20828;-64
2022/09/03 09:34:36;;;;;;;2.83;1.70;;;34.80;31.20;;;;;;5030680;28;20434;-65
2022/09/03 09:37:05;;;;;;;2.90;2.07;;;35.30;32.30;;;;;;5029986;28;20446;-64
2022/09/03 09:39:34;;;;;;;4.23;1.80;;;37.00;29.80;;;;;;5026479;28;20485;-65
2022/09/03 09:42:08;;;;;;;3.37;1.97;;;37.00;28.10;;;;;;5027718;28;20469;-65
2022/09/03 09:44:36;;;;;;;2.63;1.50;;;35.80;28.70;;;;;;5027738;28;20942;-64
2022/09/03 09:47:06;;;;;;;3.60;2.73;;;35.10;31.00;;;;;;5025493;28;21014;-65
2022/09/03 09:49:35;;;;;;;3.53;3.10;;;35.90;30.60;;;;;;5030471;28;20849;-65
2022/09/03 09:52:05;;;;;;;2.70;1.83;;;36.80;30.40;;;;;;5030306;28;20442;-64
2022/09/03 09:54:33;;;;;;;2.70;1.60;;;37.80;29.70;;;;;;5029431;28;20895;-64
2022/09/03 09:57:02;;;;;;;2.80;1.63;;;39.60;27.60;;;;;;5029083;28;20446;-66
2022/09/03 09:59:30;;;;;;;3.47;2.60;;;41.80;26.50;;;;;;5022286;28;20423;-65
2022/09/03 10:02:20;;;;;;;3.00;1.90;;;43.80;25.20;;;;;;5026110;28;20954;-65
2022/09/03 10:04:47;;;;;;;5.73;1.80;;;45.90;22.10;;;;;;5025907;28;21132;-65
2022/09/03 10:07:23;;;;;;;3.33;1.87;;;47.40;21.00;;;;;;5030683;28;20564;-65
2022/09/03 10:10:03;;;;;;;2.70;1.60;;;48.70;20.20;;;;;;5026879;28;20809;-65
2022/09/03 10:12:35;;;;;;;2.47;1.43;;;49.80;17.70;;;;;;5028029;28;20515;-66
2022/09/03 10:15:12;;;;;;;2.03;1.27;;;49.20;18.10;;;;;;5024238;28;20785;-65
2022/09/03 10:17:49;;;;;;;2.43;1.23;;;48.00;17.60;;;;;;5027782;28;20452;-65
2022/09/03 10:20:30;;;;;;;2.10;1.30;;;46.50;17.70;;;;;;5027290;28;20444;-65
2022/09/03 10:23:03;;;;;;;2.50;1.50;;;45.10;19.20;;;;;;5023784;28;20446;-66
2022/09/03 10:25:39;;;;;;;2.10;1.30;;;44.70;19.70;;;;;;5028754;28;20524;-65
2022/09/03 10:28:09;;;;;;;2.57;1.60;;;43.50;19.40;;;;;;5025736;28;20442;-66
2022/09/03 10:30:49;;;;;;;3.20;2.00;;;42.70;19.80;;;;;;5029852;28;20465;-65
2022/09/03 10:33:22;;;;;;;2.23;1.57;;;41.20;20.10;;;;;;5032764;28;20481;-66
2022/09/03 10:35:56;;;;;;;2.53;1.70;;;39.60;21.50;;;;;;5030281;28;20932;-65
2022/09/03 10:38:29;;;;;;;3.53;1.37;;;38.20;23.80;;;;;;5033299;28;20944;-65
2022/09/03 10:41:12;;;;;;;2.57;1.40;;;38.90;25.70;;;;;;5034065;28;20533;-64
2022/09/03 10:44:02;;;;;;;4.17;3.77;;;40.20;22.80;;;;;;5026633;28;20438;-65
2022/09/03 10:46:37;;;;;;;2.00;1.13;;;39.70;21.90;;;;;;5016951;28;20468;-65
2022/09/03 10:49:30;;;;;;;2.30;1.37;;;39.50;23.60;;;;;;5028716;28;20476;-66
2022/09/03 10:52:05;;;;;;;2.70;1.37;;;41.20;23.80;;;;;;5024873;28;20445;-65
2022/09/03 10:54:56;;;;;;;2.50;1.23;;;42.40;23.40;;;;;;5031886;28;20446;-65
2022/09/03 10:57:35;;;;;;;2.33;1.10;;;44.80;20.00;;;;;;5025525;28;20434;-65
2022/09/03 11:00:08;;;;;;;2.40;1.30;;;44.60;19.80;;;;;;5030107;28;20426;-65
2022/09/03 11:03:11;;;;;;;2.10;1.20;;;44.00;19.10;;;;;;5031036;28;20949;-65
2022/09/03 11:05:44;;;;;;;1.90;1.00;;;44.20;18.60;;;;;;5024127;28;20524;-64
2022/09/03 11:08:20;;;;;;;1.90;1.00;;;43.30;19.20;;;;;;5032677;28;20508;-65
2022/09/03 11:10:52;;;;;;;2.57;1.03;;;43.00;20.80;;;;;;5027468;28;20518;-67
2022/09/03 11:13:25;;;;;;;3.27;1.20;;;44.20;20.40;;;;;;5028982;28;20584;-66
2022/09/03 11:15:55;;;;;;;9.43;1.53;;;45.00;19.60;;;;;;5029113;28;20785;-67
2022/09/03 11:18:27;;;;;;;2.10;1.07;;;45.50;19.10;;;;;;5027909;28;20433;-66
2022/09/03 11:21:01;;;;;;;2.00;1.13;;;45.70;18.50;;;;;;5032998;28;20837;-64
2022/09/03 11:23:32;;;;;;;2.30;1.03;;;45.40;17.30;;;;;;5031834;28;20446;-65
2022/09/03 11:26:03;;;;;;;2.43;1.33;;;44.80;18.00;;;;;;5030626;28;20438;-69
2022/09/03 11:28:40;;;;;;;2.13;1.23;;;44.40;17.80;;;;;;5028388;28;20442;-65
2022/09/03 11:31:18;;;;;;;1.90;1.00;;;44.10;18.10;;;;;;5027578;28;20438;-65
2022/09/03 11:33:49;;;;;;;1.90;0.97;;;43.70;18.50;;;;;;5031693;28;20507;-65
2022/09/03 11:36:27;;;;;;;2.00;1.10;;;43.30;18.60;;;;;;5029777;28;20438;-65
2022/09/03 11:38:54;;;;;;;1.93;0.90;;;42.90;18.40;;;;;;5026884;28;20501;-66
2022/09/03 11:41:26;;;;;;;3.33;1.00;;;42.50;18.20;;;;;;5023772;28;20441;-65
2022/09/03 11:43:55;;;;;;;31.73;7.57;;;41.90;17.70;;;;;;5026926;28;20473;-64
2022/09/03 11:46:30;;;;;;;2.40;1.03;;;41.50;19.60;;;;;;5032576;28;20496;-66
2022/09/03 11:49:09;;;;;;;2.10;1.20;;;41.30;19.90;;;;;;5029723;28;20445;-65
2022/09/03 11:51:40;;;;;;;3.67;1.03;;;41.10;19.60;;;;;;5032384;28;20477;-65
2022/09/03 11:54:24;;;;;;;1.80;0.90;;;40.80;20.70;;;;;;5032944;28;20481;-65
2022/09/03 11:57:03;;;;;;;2.87;1.90;;;40.60;20.50;;;;;;5032558;28;20495;-65
2022/09/03 11:59:32;;;;;;;3.17;2.00;;;40.50;19.60;;;;;;5032797;28;20446;-64
2022/09/03 12:02:05;;;;;;;2.07;1.00;;;40.30;19.70;;;;;;5031914;28;20492;-65
2022/09/03 12:04:39;;;;;;;1.80;0.97;;;40.10;20.60;;;;;;5032459;28;20779;-64
2022/09/03 12:07:30;;;;;;;2.20;1.10;;;39.80;21.90;;;;;;5032490;28;20446;-66
2022/09/03 12:10:09;;;;;;;2.53;1.17;;;39.40;22.20;;;;;;5032492;28;20450;-65
2022/09/03 12:12:48;;;;;;;1.97;0.97;;;39.00;22.00;;;;;;5032362;28;20441;-68
2022/09/03 12:15:27;;;;;;;2.13;1.30;;;38.40;21.90;;;;;;5032187;28;20843;-65
2022/09/03 12:20:37;;;;;;;4.87;0.97;;;37.20;23.50;;;;;;5032262;28;20934;-64
2022/09/03 12:23:04;;;;;;;2.03;0.97;;;36.60;23.30;;;;;;5032367;28;20480;-65
2022/09/03 12:25:32;;;;;;;2.30;1.30;;;36.10;23.60;;;;;;5031904;28;20464;-66
2022/09/03 12:28:02;;;;;;;2.23;1.10;;;35.70;23.70;;;;;;5032167;28;20476;-65
2022/09/03 12:30:31;;;;;;;1.90;1.00;;;35.30;24.70;;;;;;5032170;28;20449;-64
2022/09/03 12:33:09;;;;;;;2.30;1.17;;;34.90;24.90;;;;;;5031662;28;20548;-64
2022/09/03 12:35:36;;;;;;;2.40;0.90;;;34.50;25.10;;;;;;5032102;28;20442;-64
2022/09/03 12:38:03;;;;;;;2.00;0.90;;;34.10;25.60;;;;;;5032142;28;20796;-64
2022/09/03 12:40:31;;;;;;;3.43;1.23;;;33.90;26.10;;;;;;5031975;28;20442;-65
2022/09/03 12:43:13;;;;;;;6.23;1.40;;;33.60;26.30;;;;;;5027288;28;20461;-64
2022/09/03 12:45:45;;;;;;;2.20;1.20;;;33.30;26.40;;;;;;5031789;28;20442;-65
2022/09/03 12:48:15;;;;;;;2.43;1.20;;;33.30;27.40;;;;;;5027997;28;20561;-64
2022/09/03 12:50:43;;;;;;;2.07;1.00;;;33.10;27.60;;;;;;5031999;28;20438;-65
2022/09/03 12:53:13;;;;;;;2.30;1.23;;;33.00;29.30;;;;;;5031246;28;20492;-65
2022/09/03 12:55:45;;;;;;;2.03;1.20;;;32.80;29.10;;;;;;5027594;28;20825;-64
2022/09/03 12:58:17;;;;;;;2.00;1.13;;;32.70;27.70;;;;;;5031907;28;20604;-64
2022/09/03 13:00:50;;;;;;;2.10;0.90;;;32.60;29.20;;;;;;5031486;28;20473;-65
2022/09/03 13:03:21;;;;;;;2.80;1.20;;;32.40;29.90;;;;;;5026542;28;20522;-64
2022/09/03 13:05:53;;;;;;;2.43;1.10;;;32.20;28.90;;;;;;5023784;28;20434;-65
2022/09/03 13:08:23;;;;;;;2.20;1.17;;;32.20;29.10;;;;;;5023530;28;20477;-66
2022/09/03 13:10:53;;;;;;;1.80;0.80;;;32.00;29.50;;;;;;5014323;28;20511;-65
2022/09/03 13:13:23;;;;;;;2.53;1.27;;;31.70;29.40;;;;;;5025956;28;20477;-66